Latest Coastal Weather Observations for Sydney Airport

IDN60701

Issued at 1:22 am EDT Monday 26 January 2015 (issued every 10 minutes, with the page automatically refreshed every 10 minutes)

About coastal observations | Map of coastal stations | Coastal observations for NSW | Marine services | Other Formats
Station Details ID: 066037 Name: SYDNEY AIRPORT AMO Lat: -33.95 Lon: 151.17 Height: 6.0 m
Data from the previous 72 hours. | See also: Recent months at Sydney Airport
Date/Time
EDT
Temp

°C
Wind Pressure Rain
since 9am
mm
Weather Cloud Vis
km
Sea
Height
m
Swell
Dir
 
Speed
knots
Gust
knots
hPa Trend Height
m
Period
s
Dir
26/01:00am 22.2 S 13 16 1009.9 - 0.0 - Mostly clear 10 - - - -
26/12:30am 22.3 S 17 20 1009.6 - 0.0 - Mostly clear 10 - - - -
 
Date/Time
EDT
Temp

°C
Wind Pressure Rain
since 9am
mm
Weather Cloud Vis
km
Sea
Height
m
Swell
Dir
 
Speed
knots
Gust
knots
hPa Trend Height
m
Period
s
Dir
25/11:30pm 22.3 S 16 20 1009.5 - 0.0 - Mostly clear 10 - - - -
25/11:00pm 22.3 S 19 24 1009.1 - 0.0 - Mostly clear 10 - - - -
25/10:30pm 22.6 S 19 26 1008.8 - 0.0 - Mostly clear 10 - - - -
25/10:00pm 22.8 S 20 25 1008.4 - 0.0 - Mostly clear 10 - - - -
25/09:30pm 22.9 S 22 30 1008.0 - 0.0 - Mostly clear 10 - - - -
25/09:00pm 22.9 S 23 28 1007.3 R 0.0 Haze Mostly clear 15 - - - -
25/08:30pm 23.1 S 24 29 1006.4 - 0.0 - Mostly clear 10 - - - -
25/08:00pm 23.3 S 28 37 1005.8 - 0.0 - Mostly clear 10 - - - -
25/07:30pm 23.6 S 25 32 1005.3 - 0.0 - Mostly clear 10 - - - -
25/07:00pm 24.8 S 26 34 1004.6 - 0.0 - Mostly clear 10 - - - -
25/06:51pm 27.3 ESE 15 34 1004.0 - 0.0 - Mostly clear 10 - - - -
25/06:48pm 31.0 E 10 27 1003.4 - 0.0 - Mostly clear 10 - - - -
25/06:30pm 30.8 ENE 9 12 1002.8 - 0.0 - - 10 - - - -
25/06:00pm 31.8 E 9 11 1002.2 R 0.0 Fine Mostly clear 30 - - - -
25/05:30pm 31.9 NE 10 13 1001.9 - 0.0 - - 10 - - - -
25/05:00pm 31.8 ENE 9 12 1001.7 - 0.0 - Partly cloudy 10 - - - -
25/04:30pm 31.5 ENE 13 16 1001.5 - 0.0 - Partly cloudy 10 - - - -
25/04:00pm 31.9 ENE 15 18 1001.4 - 0.0 - Partly cloudy 10 - - - -
25/03:30pm 32.9 E 15 18 1001.2 - 0.0 - Partly cloudy 10 - - - -
25/03:00pm 32.9 ENE 14 18 1001.1 R 0.0 Fine Partly cloudy 30 - - - -
25/02:30pm 34.1 ENE 9 13 1001.0 - 0.0 - Partly cloudy 10 - - - -
25/02:00pm 33.6 E 11 15 1001.1 - 0.0 - - 10 - - - -
25/01:30pm 35.2 E 8 10 1001.3 - 0.0 - - 10 - - - -
25/01:00pm 34.2 SW 4 5 1001.5 - 0.0 - - 10 - - - -
25/12:30pm 34.1 WNW 4 8 1001.8 - 0.0 - - 10 - - - -
25/12:00pm 31.8 W 5 7 1002.4 F 0.0 Fine Mostly clear 30 - - - -
25/11:30am 32.1 W 6 9 1002.6 - 0.0 - Mostly clear 10 - - - -
25/11:00am 28.9 S 4 7 1002.7 - 0.0 - Mostly clear 10 - - - -
25/10:30am 29.3 W 5 9 1002.8 - 0.0 - - 10 - - - -
25/10:00am 29.0 NW 5 8 1002.6 - 0.0 - - 10 - - - -
25/09:30am 27.9 W 5 7 1002.7 - 0.0 - - 10 - - - -
25/09:00am 26.0 NW 7 8 1003.1 F 0.4 Fine Mostly clear 25 - - - -
25/08:30am 24.7 NW 6 7 1003.2 - 0.4 - - 10 - - - -
25/08:00am 23.8 NW 7 8 1003.1 - 0.4 - - 10 - - - -
25/07:30am 23.7 NW 7 8 1002.8 - 0.4 - - 10 - - - -
25/07:00am 22.4 WNW 5 6 1002.6 - 0.4 - - 10 - - - -
25/06:30am 22.8 NNW 5 6 1002.1 - 0.4 - - 10 - - - -
25/06:00am 22.4 NNW 5 6 1002.0 F 0.4 Fine Partly cloudy 25 - - - -
25/05:30am 21.7 WNW 6 7 1001.9 - 0.4 - - 10 - - - -
25/05:00am 22.4 N 5 5 1001.7 - 0.4 - - 10 - - - -
25/04:30am 21.9 NW 3 4 1001.8 - 0.4 - - 10 - - - -
25/04:00am 21.7 NW 5 5 1002.0 - 0.4 - - 10 - - - -
25/03:30am 22.0 WNW 6 7 1002.3 - 0.4 - - 10 - - - -
25/03:00am 22.3 WNW 8 9 1002.5 F 0.4 Fine Mostly clear 25 - - - -
25/02:38am 22.8 NW 8 9 1003.0 - 0.4 - Mostly clear 10 - - - -
25/02:30am 22.9 NW 7 8 1003.2 - 0.4 - Partly cloudy 10 - - - -
25/02:00am 23.2 NW 8 10 1003.7 - 0.4 - Partly cloudy 10 - - - -
25/01:30am 23.5 WNW 8 10 1004.1 - 0.4 - Mostly clear 10 - - - -
25/01:00am 24.0 WNW 9 10 1004.6 - 0.4 - - 10 - - - -
25/12:30am 24.7 N 11 14 1004.4 - 0.4 - - 10 - - - -
25/12:00am 24.3 NE 10 12 1004.7 F 0.4 Fine Mostly cloudy 25 - - - -
 
Date/Time
EDT
Temp

°C
Wind Pressure Rain
since 9am
mm
Weather Cloud Vis
km
Sea
Height
m
Swell
Dir
 
Speed
knots
Gust
knots
hPa Trend Height
m
Period
s
Dir
24/11:30pm 24.2 NNE 8 9 1005.3 - 0.4 - Mostly clear 10 - - - -
24/11:00pm 25.1 NE 7 8 1005.8 - 0.0 - Mostly clear 10 - - - -
24/10:30pm 26.2 N 12 15 1006.3 - 0.0 Drizzle Mostly clear 10 - - - -
24/10:00pm 26.8 N 10 14 1006.5 - 0.0 - Mostly clear 10 - - - -
24/09:30pm 26.8 NNE 7 10 1006.0 - 0.0 Thunder Mostly clear 10 - - - -
24/09:19pm 26.6 NNE 10 15 1006.0 - 0.0 Thunder Mostly clear 10 - - - -
24/09:00pm 26.8 NNE 13 17 1005.8 R 0.0 Fine Mostly cloudy 20 - - - -
24/08:30pm 26.6 NNE 10 14 1005.2 - 0.0 - Partly cloudy 10 - - - -
24/08:00pm 26.4 NNE 11 17 1005.1 - 0.0 - - 10 - - - -
24/07:30pm 26.7 NE 12 18 1004.4 - 0.0 - - 10 - - - -
24/07:00pm 26.8 NE 18 25 1004.2 - 0.0 - - 10 - - - -
24/06:30pm 27.4 NE 16 21 1003.5 - 0.0 - - 10 - - - -
24/06:00pm 27.7 NE 18 22 1003.7 F 0.0 Fine Mostly cloudy 25 - - - -
24/05:30pm 28.4 NE 17 22 1003.4 - 0.0 - - 10 - - - -
24/05:00pm 28.2 NE 21 27 1003.3 - 0.0 - - 10 - - - -
24/04:30pm 29.6 NE 19 27 1003.9 - 0.0 - - 10 - - - -
24/04:00pm 29.7 NE 21 27 1004.3 - 0.0 - - 10 - - - -
24/03:30pm 30.6 NE 19 28 1004.3 - 0.0 - - 10 - - - -
24/03:00pm 31.1 NE 20 25 1004.6 F 0.0 Fine Mostly clear 30 - - - -
24/02:30pm 30.6 NE 18 21 1005.3 - 0.0 - - 10 - - - -
24/02:00pm 30.5 NE 18 22 1005.7 - 0.0 - - 10 - - - -
24/01:30pm 30.7 NE 17 21 1006.1 - 0.0 - Mostly clear 10 - - - -
24/01:00pm 30.0 NE 18 21 1006.4 - 0.0 - Mostly clear 10 - - - -
24/12:30pm 30.7 NNE 18 21 1006.8 - 0.0 - Mostly clear 10 - - - -
24/12:00pm 29.3 NE 17 20 1007.1 F 0.0 Fine Mostly clear 25 - - - -
24/11:30am 29.7 NE 18 21 1007.3 - 0.0 - - 10 - - - -
24/11:00am 29.5 NE 18 22 1007.4 - 0.0 - - 10 - - - -
24/10:30am 28.4 NNE 14 18 1007.7 - 0.0 - Mostly clear 10 - - - -
24/10:00am 27.4 NE 10 14 1007.8 - 0.0 - Mostly clear 10 - - - -
24/09:30am 27.8 NE 10 12 1008.0 - 0.0 - Mostly clear 10 - - - -
24/09:00am 27.5 NNE 8 10 1008.0 F 0.4 Haze Mostly clear 20 - - - -
24/08:30am 26.5 NNE 7 12 1008.0 - 0.4 - - 10 - - - -
24/08:00am 25.9 NNE 6 7 1007.8 - 0.4 - - 10 - - - -
24/07:30am 25.1 NNE 6 7 1007.7 - 0.4 - - 10 - - - -
24/07:00am 24.5 N 9 11 1007.3 - 0.4 - - 10 - - - -
24/06:30am 24.0 NNE 11 14 1006.9 - 0.4 - - 10 - - - -
24/06:00am 23.9 NNE 11 14 1006.9 R 0.4 Haze Mostly clear 15 - - - -
24/05:30am 23.6 NNE 11 14 1006.8 - 0.4 - - 10 - - - -
24/05:00am 23.8 NNE 10 14 1006.6 - 0.4 - - 10 - - - -
24/04:30am 23.9 NNE 9 11 1006.4 - 0.4 - - 10 - - - -
24/04:00am 23.7 NNE 9 12 1006.2 - 0.4 - - 10 - - - -
24/03:30am 23.5 NNE 13 18 1006.2 - 0.4 - - 10 - - - -
24/03:00am 23.5 NNE 15 19 1006.3 R 0.4 Haze Clear 15 - - - -
24/02:30am 23.5 NNE 15 20 1006.3 - 0.4 - - 10 - - - -
24/02:00am 24.0 NNE 16 20 1006.5 - 0.4 - - 10 - - - -
24/01:30am 24.1 NNE 16 21 1006.8 - 0.4 - - 10 - - - -
24/01:00am 24.1 NNE 15 19 1006.9 - 0.4 - - 10 - - - -
24/12:30am 24.7 NNE 16 20 1006.9 - 0.4 - - 10 - - - -
24/12:00am 24.7 NNE 15 20 1007.1 R 0.4 Fine Mostly cloudy 15 - - - -
 
Date/Time
EDT
Temp

°C
Wind Pressure Rain
since 9am
mm
Weather Cloud Vis
km
Sea
Height
m
Swell
Dir
 
Speed
knots
Gust
knots
hPa Trend Height
m
Period
s
Dir
23/11:30pm 25.2 NNE 17 21 1007.4 - 0.4 - - 10 - - - -
23/11:00pm 25.4 NNE 15 19 1007.2 - 0.4 - - 10 - - - -
23/10:30pm 25.4 NE 19 25 1007.0 - 0.4 - - 10 - - - -
23/10:00pm 25.8 NNE 18 22 1007.1 - 0.4 - - 10 - - - -
23/09:30pm 25.5 NNE 19 22 1006.9 - 0.4 - - 10 - - - -
23/09:00pm 25.9 NNE 20 27 1006.5 F 0.4 Fine Mostly cloudy 18 - - - -
23/08:30pm 26.1 NNE 17 26 1006.5 - 0.4 - Mostly clear 10 - - - -
23/08:00pm 26.1 NNE 20 26 1006.3 - 0.4 - Mostly clear 10 - - - -
23/07:30pm 26.5 NNE 20 29 1006.6 - 0.4 - Mostly clear 10 - - - -
23/07:00pm 26.9 NNE 22 30 1006.1 - 0.4 - Mostly clear 10 - - - -
23/06:30pm 27.3 NE 20 24 1006.0 - 0.4 - Mostly clear 10 - - - -
23/06:00pm 28.4 NE 21 27 1005.5 F 0.4 Fine Mostly clear 30 - - - -
23/05:30pm 29.4 NE 21 28 1005.7 - 0.4 - - 10 - - - -
23/05:00pm 29.2 NE 21 27 1005.8 - 0.4 - - 10 - - - -
23/04:30pm 29.9 NE 25 30 1005.8 - 0.4 - - 10 - - - -
23/04:00pm 30.0 NE 22 28 1006.1 - 0.4 - Mostly clear 10 - - - -
23/03:30pm 29.1 NNE 21 27 1006.4 - 0.4 - Mostly clear 10 - - - -
23/03:00pm 30.8 NE 19 24 1006.8 F 0.4 Haze Mostly clear 25 - - - -
23/02:30pm 30.6 NE 19 21 1007.0 - 0.0 - Mostly clear 10 - - - -
23/02:00pm 31.3 NE 19 22 1007.4 - 0.0 - Mostly clear 10 - - - -
23/01:30pm 29.7 NE 19 22 1007.9 - 0.0 - Mostly clear 10 - - - -
23/01:00pm 29.8 NNE 18 21 1008.0 - 0.0 - Mostly clear 10 - - - -
23/12:30pm 29.5 NNE 17 20 1008.4 - 0.0 - Mostly clear 10 - - - -
23/12:00pm 27.8 NNE 15 18 1008.7 F 0.0 Fine Mostly clear 30 - - - -
23/11:30am 28.6 NE 11 14 1009.0 - 0.0 - Mostly clear 10 - - - -
23/11:00am 27.6 NE 10 14 1009.1 - 0.0 - Partly cloudy 10 - - - -
23/10:30am 28.2 ENE 9 14 1009.4 - 0.0 - Partly cloudy 10 - - - -
23/10:00am 27.4 NE 9 12 1009.6 - 0.0 - Mostly clear 10 - - - -
23/09:30am 28.1 N 9 12 1010.0 - 0.0 - Mostly clear 10 - - - -
23/09:00am 26.3 NNW 10 13 1010.1 F 0.0 Fine Mostly cloudy 25 - - - -
23/08:30am 26.0 N 8 12 1010.2 - 0.0 - Partly cloudy 10 - - - -
23/08:00am 26.1 N 11 14 1010.2 - 0.0 - Mostly clear 10 - - - -
23/07:30am 25.6 NNE 10 13 1010.0 - 0.0 - Mostly clear 10 - - - -
23/07:00am 24.8 NE 6 7 1009.9 - 0.0 - Partly cloudy 10 - - - -
23/06:30am 24.4 NE 4 6 1009.8 - 0.0 - Mostly clear 10 - - - -
23/06:00am 24.0 NNE 7 8 1009.7 F 0.0 Fine Mostly clear 25 - - - -
23/05:30am 24.0 N 6 6 1009.6 - 0.0 - Mostly clear 10 - - - -
23/05:00am 23.9 NNW 5 7 1009.6 - 0.0 - Mostly clear 10 - - - -
23/04:30am 23.6 NNW 7 9 1009.5 - 0.0 - Mostly clear 10 - - - -
23/04:00am 23.6 NNW 7 9 1009.4 - 0.0 - Mostly clear 10 - - - -
23/03:30am 23.7 NNW 7 9 1009.7 - 0.0 - Mostly clear 10 - - - -
23/03:00am 23.9 N 9 13 1010.0 F 0.0 Fine Partly cloudy 25 - - - -
23/02:30am 23.9 NNE 11 13 1010.1 - 0.0 - Mostly clear 10 - - - -
23/02:00am 24.3 NNE 10 14 1010.4 - 0.0 - Mostly clear 10 - - - -
23/01:37am 24.2 NNE 8 11 1010.6 - 0.0 - Partly cloudy 10 - - - -
23/01:30am 23.9 NNE 8 12 1010.6 - 0.0 - Mostly clear 10 - - - -
23/01:24am 24.2 NNE 9 13 1010.6 - 0.0 - Partly cloudy 10 - - - -

Other Formats:

Comma delimited format used in spreadsheet applications
http://www.bom.gov.au/fwo/IDN60701/IDN60701.94767.axf

JavaScript Object Notation format (JSON) in row-major order
http://www.bom.gov.au/fwo/IDN60701/IDN60701.94767.json